TAF Text Data
IDs:
Format:
Raw Decoded Include METAR

Data at: 0504 UTC 24 Sep 2020

Region: TOP
KATL 240358Z 2404/2506 11004KT P6SM BKN120
  FM241200 11007KT P6SM FEW040 BKN080
  TEMPO 2413/2415 6SM -SHRA BR BKN035
  FM241500 12010KT 6SM -RA BR SCT015 BKN025
  FM242100 13010KT 6SM -RA BR OVC015
  FM250400 13010KT 4SM -RADZ BR BKN006


KBOS 240328Z 2403/2506 27005KT P6SM SKC
  FM241800 23006KT P6SM SCT250


KBWI 232323Z 2400/2506 22004KT P6SM SCT250
  FM240300 VRB03KT P6SM BKN250
  FM241600 21008KT P6SM FEW060 SCT100 BKN200
  FM242000 21008G16KT P6SM FEW060 BKN130
  FM250000 21005KT P6SM FEW060 BKN130


KCLE 240313Z 2403/2506 22005KT P6SM BKN250
  FM241900 VRB06KT P6SM SCT040
  FM250000 20005KT P6SM FEW200


KCLT 240140Z 2402/2506 21003KT P6SM BKN120
  FM242100 02003KT P6SM VCSH OVC090
  PROB30 2422/2502 4SM -SHRA BR OVC025
  FM250200 07004KT P6SM -SHRA BKN050
  FM250500 07003KT 6SM -SHRA BR BKN026


KCVG 232330Z 2400/2506 25004KT P6SM FEW040 BKN250
  FM241400 17005KT P6SM SCT035 BKN150


KDCA 232323Z 2400/2506 23005KT P6SM BKN250
  FM241600 20008KT P6SM FEW060 BKN130
  FM242000 20008G16KT P6SM FEW060 BKN130
  FM250000 20008KT P6SM FEW060 BKN130


KDEN 240300Z 2403/2506 18007KT P6SM FEW100 SCT220
  FM240400 21010KT P6SM FEW140 SCT220
  FM241800 12011KT P6SM FEW140 SCT220
  FM250300 23010KT P6SM FEW140 SCT220


KDFW 240309Z 2403/2506 01009KT P6SM OVC035
  TEMPO 2403/2405 OVC025
  FM241000 36005KT P6SM SCT006 BKN016
  TEMPO 2412/2416 BKN006
  FM241600 36006KT P6SM BKN050
  FM241900 02007KT P6SM FEW250


KDTW 240305Z 2403/2506 27004KT P6SM BKN250
  FM240900 VRB04KT 6SM HZ BKN200
  FM241300 23006KT P6SM FEW200
  FM241900 23010KT P6SM FEW200


KEWR 240253Z 2403/2506 VRB03KT P6SM SKC
  FM241500 27006KT P6SM SCT250
  FM241900 24008KT P6SM SCT200
  FM242200 16007KT P6SM SCT200
  FM250100 19007KT P6SM SCT200
  FM250300 23005KT P6SM SCT200


KFLL 240319Z 2403/2506 09010KT P6SM SCT030 BKN250
  FM241600 12014G22KT P6SM VCSH SCT030 BKN050
  FM250000 12012KT P6SM VCSH BKN050


KIAD 232323Z 2400/2506 23004KT P6SM SCT250
  FM240300 VRB03KT P6SM BKN250
  FM241600 21008KT P6SM FEW060 BKN130
  FM242000 21008G16KT P6SM FEW060 BKN130
  FM250000 21005KT P6SM FEW060 BKN130


KIAH 240322Z 2403/2506 34010KT P6SM BKN015 OVC030
  FM240600 35005KT P6SM BKN015
  FM240900 35006KT 4SM BR OVC009
  FM241400 36006KT P6SM OVC015
  FM241900 01007KT P6SM SCT025


KJFK 240253Z 2403/2506 27004KT P6SM SKC
  FM241500 23008KT P6SM SCT250
  FM241800 19011KT P6SM SCT200
  FM250100 20007KT P6SM SCT200
  FM250400 23005KT P6SM SCT200


KLAS 240247Z 2403/2506 22006KT P6SM SKC
  FM241200 VRB05KT P6SM SKC
  FM241900 12008KT P6SM SKC
  FM242100 18012G20KT P6SM SKC
  FM250300 20008KT P6SM SKC


KLAX 240301Z 2403/2506 26006KT P6SM SKC
  FM240800 VRB03KT 6SM BR BKN009
  FM241000 00000KT 2SM BR OVC004
  FM241500 VRB03KT 5SM BR BKN009
  FM241700 26006KT P6SM SKC
  FM242100 26011KT P6SM SKC


KLGA 240253Z 2403/2506 31004KT P6SM SKC
  FM241600 29007KT P6SM SCT250
  FM241900 20009KT P6SM SCT200
  FM242100 17009KT P6SM SCT200
  FM250100 20007KT P6SM SCT200
  FM250400 23006KT P6SM SCT200


KMCO 240259Z 2403/2506 10005KT P6SM SCT040 BKN250
  FM241400 14008KT P6SM SCT040 SCT250
  FM250200 11006KT P6SM SCT020 SCT070


KMDW 240300Z 2403/2506 22006KT P6SM BKN250
  FM241800 23012KT P6SM SCT045 BKN100
  FM250100 19007KT P6SM BKN090


KMEM 240303Z 2403/2506 08011KT 5SM -RA FEW009 BKN035
  FM240500 07010KT 4SM -SHRA OVC005
  FM241600 05007KT 4SM -RA BR OVC007
  FM242300 03005KT 4SM BR VCSH OVC015


KMIA 240319Z 2403/2506 09010KT P6SM SCT030 BKN250
  FM241600 12012G21KT P6SM VCSH SCT030 BKN050
  FM250000 12012KT P6SM VCSH BKN050


KMSP 240240Z 2403/2506 18008KT P6SM BKN070
  FM240700 15008KT P6SM -SHRA VCTS SCT025 BKN050CB
  FM241300 10006KT P6SM BKN025 OVC050
  FM242000 07004KT P6SM SCT030 BKN050


KORD 240300Z 2403/2506 22006KT P6SM BKN250
  FM241800 23012KT P6SM SCT045 BKN100
  FM250100 19007KT P6SM BKN090


KPDX 240201Z 2402/2424 19007KT P6SM RA BKN080 OVC100
  FM240400 18007KT P6SM -SHRA SCT016 OVC050
  FM241800 20009KT P6SM -SHRA BKN035


KPHL 240238Z 2403/2506 24008KT P6SM SCT250
  FM240800 VRB04KT P6SM BKN250
  FM241300 28008KT P6SM FEW045 BKN150
  FM242000 23008KT P6SM BKN250


KPHX 240236Z 2403/2506 26007KT P6SM SKC
  TEMPO 2403/2405 FEW120
  FM241000 10005KT P6SM SKC
  FM242000 26007KT P6SM FEW120


KPIT 240359Z 2404/2506 27005KT P6SM BKN250
  FM241200 20003KT P6SM OVC150
  FM241900 27007KT P6SM SCT100


KSAN 240203Z 2402/2506 30005KT P6SM FEW008 SCT250
  FM241000 VRB05KT 5SM HZ OVC006
  FM241600 VRB04KT P6SM SCT010
  FM241900 26010KT P6SM SKC
  FM250200 27004KT P6SM SCT008


KSEA 240305Z 2403/2506 20012G21KT 5SM -RA BR SCT020 BKN030 OVC050
  FM240600 18014G22KT 4SM -SHRA OVC030
  FM241200 19015G24KT P6SM -SHRA OVC025
  FM241500 19015KT P6SM -SHRA OVC020
  FM241800 20017G25KT 5SM -SHRA BR OVC007


KSFO 240300Z 2403/2506 29013KT P6SM SCT008
  TEMPO 2405/2409 OVC008
  FM240900 29008KT 6SM BR OVC005
  TEMPO 2410/2414 5SM -DZ BR OVC005
  FM241730 29006KT P6SM SCT010
  FM242100 29020G27KT P6SM FEW012
  FM250400 29015G19KT P6SM SCT010


KSLC 240302Z 2403/2506 15007KT P6SM BKN250
  FM240500 15007KT P6SM SCT250
  FM241500 17012G20KT P6SM FEW250
  FM242000 32010KT P6SM FEW250


KSTL 240303Z 2403/2506 16005KT P6SM BKN120
  FM241500 14006KT P6SM FEW040 SCT120
  FM250100 VRB04KT P6SM SKC


KTPA 240300Z 2403/2506 11005KT P6SM SCT060 BKN250
  FM241400 14007KT P6SM SCT040 SCT250
  FM241800 19007KT P6SM SCT050 SCT250
  FM250200 VRB04KT P6SM BKN030